Time,TemperatureF,DewpointF,PressureIn,WindDirection,WindDirectionDegrees,WindSpeedMPH,WindSpeedGustMPH,Humidity,HourlyPrecipIn,Conditions,Clouds,dailyrainin,SoftwareType,DateUTC
2013-09-23 09:57:00,56.5,22.3,29.77,NNW,348,4.0,7.0,26,0.00,,,0.00,Weather View 32 v70,2013-09-23 13:57:00,
2013-09-23 10:02:00,56.5,23.3,29.80,NNW,339,4.0,9.0,28,0.00,,,0.00,Weather View 32 v70,2013-09-23 14:02:00,
2013-09-23 10:07:00,56.6,22.8,29.77,NNW,346,6.0,11.0,27,0.00,,,0.00,Weather View 32 v70,2013-09-23 14:07:00,
2013-09-23 10:12:00,58.4,25.5,29.77,NE,46,1.0,11.0,28,0.00,,,0.00,Weather View 32 v70,2013-09-23 14:12:00,
2013-09-23 10:17:00,57.7,22.8,29.77,WNW,300,3.0,11.0,26,0.00,,,0.00,Weather View 32 v70,2013-09-23 14:17:00,
2013-09-23 10:22:00,57.5,24.5,29.77,North,355,2.0,11.0,28,0.00,,,0.00,Weather View 32 v70,2013-09-23 14:22:00,
2013-09-23 10:27:00,56.8,21.8,29.77,NNW,338,4.0,11.0,26,0.00,,,0.00,Weather View 32 v70,2013-09-23 14:27:00,
2013-09-23 10:32:00,59.2,23.9,29.77,ENE,59,2.0,11.0,26,0.00,,,0.00,Weather View 32 v70,2013-09-23 14:32:00,
2013-09-23 10:37:00,58.8,22.4,29.77,NNW,327,4.0,11.0,24,0.00,,,0.00,Weather View 32 v70,2013-09-23 14:37:00,
2013-09-23 10:42:00,59.3,22.6,29.77,NW,310,1.0,11.0,24,0.00,,,0.00,Weather View 32 v70,2013-09-23 14:42:00,
2013-09-23 10:47:00,58.8,23.5,29.77,NNW,333,3.0,13.0,26,0.00,,,0.00,Weather View 32 v70,2013-09-23 14:47:00,
2013-09-23 10:52:00,62.4,25.1,29.77,NE,49,1.0,13.0,24,0.00,,,0.00,Weather View 32 v70,2013-09-23 14:52:00,
2013-09-23 10:57:00,58.1,21.1,29.77,WNW,287,8.0,13.0,24,0.00,,,0.00,Weather View 32 v70,2013-09-23 14:57:00,
2013-09-23 11:02:00,57.9,21.4,29.77,WNW,290,6.0,13.0,24,0.00,,,0.00,Weather View 32 v70,2013-09-23 15:02:00,
2013-09-23 11:07:00,62.4,26.0,29.77,NE,49,1.0,13.0,25,0.00,,,0.00,Weather View 32 v70,2013-09-23 15:07:00,
2013-09-23 11:12:00,60.6,21.4,29.77,NW,305,5.0,13.0,22,0.00,,,0.00,Weather View 32 v70,2013-09-23 15:12:00,
2013-09-23 11:17:00,63.3,23.9,29.77,NE,47,3.0,13.0,22,0.00,,,0.00,Weather View 32 v70,2013-09-23 15:17:00,
2013-09-23 11:22:00,59.0,18.3,29.77,NW,321,8.0,13.0,20,0.00,,,0.00,Weather View 32 v70,2013-09-23 15:22:00,
2013-09-23 11:27:00,60.8,22.8,29.80,SSW,209,2.0,13.0,23,0.00,,,0.00,Weather View 32 v70,2013-09-23 15:27:00,
2013-09-23 11:32:00,62.6,26.2,29.77,NNE,24,2.0,13.0,25,0.00,,,0.00,Weather View 32 v70,2013-09-23 15:32:00,
2013-09-23 11:37:00,59.5,21.8,29.77,WNW,294,4.0,13.0,23,0.00,,,0.00,Weather View 32 v70,2013-09-23 15:37:00,
2013-09-23 11:42:00,61.9,23.9,29.77,NW,319,3.0,13.0,23,0.00,,,0.00,Weather View 32 v70,2013-09-23 15:42:00,
2013-09-23 11:47:00,63.8,24.7,29.77,NE,42,3.0,13.0,23,0.00,,,0.00,Weather View 32 v70,2013-09-23 15:47:00,
2013-09-23 11:52:00,62.6,23.0,29.77,NNW,331,3.0,13.0,22,0.00,,,0.00,Weather View 32 v70,2013-09-23 15:52:00,
2013-09-23 11:57:00,61.9,22.8,29.77,North,2,1.0,13.0,22,0.00,,,0.00,Weather View 32 v70,2013-09-23 15:57:00,
2013-09-23 12:02:00,63.5,24.4,29.77,NE,37,4.0,13.0,23,0.00,,,0.00,Weather View 32 v70,2013-09-23 16:02:00,
2013-09-23 12:07:00,64.6,26.4,29.77,ENE,72,0.0,13.0,24,0.00,,,0.00,Weather View 32 v70,2013-09-23 16:07:00,
2013-09-23 12:12:00,63.8,21.7,29.77,North,2,3.0,13.0,20,0.00,,,0.00,Weather View 32 v70,2013-09-23 16:12:00,
2013-09-23 12:17:00,63.1,22.6,29.77,NNW,330,3.0,13.0,21,0.00,,,0.00,Weather View 32 v70,2013-09-23 16:17:00,
2013-09-23 12:22:00,65.1,23.8,29.80,NNE,24,3.0,13.0,21,0.00,,,0.00,Weather View 32 v70,2013-09-23 16:22:00,
2013-09-23 12:27:00,61.1,20.9,29.77,North,349,9.0,13.0,21,0.00,,,0.00,Weather View 32 v70,2013-09-23 16:27:00,
2013-09-23 12:32:00,64.2,23.9,29.77,NNW,338,1.0,11.0,22,0.00,,,0.00,Weather View 32 v70,2013-09-23 16:32:00,
2013-09-23 12:37:00,66.7,23.8,29.77,ESE,118,2.0,11.0,20,0.00,,,0.00,Weather View 32 v70,2013-09-23 16:37:00,
2013-09-23 12:42:00,64.2,24.0,29.77,ESE,106,4.0,11.0,22,0.00,,,0.00,Weather View 32 v70,2013-09-23 16:42:00,
2013-09-23 12:47:00,64.2,23.9,29.77,NE,53,1.0,11.0,22,0.00,,,0.00,Weather View 32 v70,2013-09-23 16:47:00,
2013-09-23 12:52:00,60.6,20.5,29.77,NNW,334,8.0,11.0,21,0.00,,,0.00,Weather View 32 v70,2013-09-23 16:52:00,
2013-09-23 12:57:00,64.6,25.3,29.77,NNE,22,2.0,11.0,23,0.00,,,0.00,Weather View 32 v70,2013-09-23 16:57:00,
2013-09-23 13:02:00,65.5,25.0,29.77,West,263,4.0,11.0,22,0.00,,,0.00,Weather View 32 v70,2013-09-23 17:02:00,
2013-09-23 13:07:00,66.9,26.6,29.77,West,261,1.0,11.0,22,0.00,,,0.00,Weather View 32 v70,2013-09-23 17:07:00,
2013-09-23 13:12:00,65.5,23.1,29.77,NNW,342,1.0,11.0,20,0.00,,,0.00,Weather View 32 v70,2013-09-23 17:12:00,
2013-09-23 13:17:00,66.5,25.4,29.77,NE,51,5.0,11.0,21,0.00,,,0.00,Weather View 32 v70,2013-09-23 17:17:00,
2013-09-23 13:22:00,66.9,21.5,29.77,NW,305,2.0,11.0,18,0.00,,,0.00,Weather View 32 v70,2013-09-23 17:22:00,
2013-09-23 13:27:00,66.5,23.2,29.77,ESE,105,6.0,11.0,19,0.00,,,0.00,Weather View 32 v70,2013-09-23 17:27:00,
2013-09-23 13:32:00,67.6,24.5,29.77,North,6,1.0,11.0,20,0.00,,,0.00,Weather View 32 v70,2013-09-23 17:32:00,
2013-09-23 13:37:00,66.0,22.2,29.77,NW,313,5.0,11.0,19,0.00,,,0.00,Weather View 32 v70,2013-09-23 17:37:00,
2013-09-23 13:42:00,68.2,23.0,29.77,East,82,2.0,11.0,18,0.00,,,0.00,Weather View 32 v70,2013-09-23 17:42:00,
2013-09-23 13:47:00,66.5,23.3,29.77,NW,316,2.0,11.0,19,0.00,,,0.00,Weather View 32 v70,2013-09-23 17:47:00,
2013-09-23 13:52:00,68.2,26.1,29.77,East,79,3.0,11.0,21,0.00,,,0.00,Weather View 32 v70,2013-09-23 17:52:00,
2013-09-23 13:57:00,68.3,24.4,29.77,NNE,13,2.0,11.0,19,0.00,,,0.00,Weather View 32 v70,2013-09-23 17:57:00,
2013-09-23 14:02:00,67.4,22.4,29.74,North,360,2.0,11.0,18,0.00,,,0.00,Weather View 32 v70,2013-09-23 18:02:00,
2013-09-23 14:07:00,69.1,21.9,29.77,ESE,120,4.0,11.0,17,0.00,,,0.00,Weather View 32 v70,2013-09-23 18:07:00,
2013-09-23 14:12:00,67.4,21.6,29.77,NNW,337,5.0,11.0,17,0.00,,,0.00,Weather View 32 v70,2013-09-23 18:12:00,
2013-09-23 14:17:00,70.9,22.3,29.77,NNE,12,5.0,11.0,16,0.00,,,0.00,Weather View 32 v70,2013-09-23 18:17:00,
2013-09-23 14:22:00,66.7,22.8,29.77,NW,312,2.0,11.0,19,0.00,,,0.00,Weather View 32 v70,2013-09-23 18:22:00,
2013-09-23 14:27:00,67.8,23.9,29.77,ENE,63,3.0,11.0,19,0.00,,,0.00,Weather View 32 v70,2013-09-23 18:27:00,
2013-09-23 14:32:00,68.9,21.2,29.74,North,10,1.0,11.0,16,0.00,,,0.00,Weather View 32 v70,2013-09-23 18:32:00,
2013-09-23 14:37:00,65.6,20.5,29.77,WNW,292,5.0,11.0,18,0.00,,,0.00,Weather View 32 v70,2013-09-23 18:37:00,
2013-09-23 14:42:00,66.2,23.2,29.77,NNW,344,3.0,11.0,20,0.00,,,0.00,Weather View 32 v70,2013-09-23 18:42:00,
2013-09-23 14:47:00,66.7,23.9,29.77,North,6,3.0,11.0,20,0.00,,,0.00,Weather View 32 v70,2013-09-23 18:47:00,
2013-09-23 14:52:00,69.4,26.4,29.74,North,6,1.0,11.0,20,0.00,,,0.00,Weather View 32 v70,2013-09-23 18:52:00,
2013-09-23 14:57:00,67.6,21.8,29.74,SSW,194,1.0,11.0,18,0.00,,,0.00,Weather View 32 v70,2013-09-23 18:57:00,
2013-09-23 15:02:00,66.7,20.2,29.77,NNW,329,5.0,12.0,17,0.00,,,0.00,Weather View 32 v70,2013-09-23 19:02:00,
2013-09-23 15:07:00,68.0,22.4,29.74,North,353,5.0,12.0,18,0.00,,,0.00,Weather View 32 v70,2013-09-23 19:07:00,
2013-09-23 15:12:00,70.9,23.1,29.74,ESE,112,2.0,12.0,17,0.00,,,0.00,Weather View 32 v70,2013-09-23 19:12:00,
2013-09-23 15:18:00,68.7,24.0,29.74,North,5,2.0,12.0,19,0.00,,,0.00,Weather View 32 v70,2013-09-23 19:18:00,
2013-09-23 15:23:00,68.0,25.3,29.77,North,360,3.0,12.0,20,0.00,,,0.00,Weather View 32 v70,2013-09-23 19:23:00,
2013-09-23 15:28:00,68.7,23.0,29.74,North,7,5.0,12.0,18,0.00,,,0.00,Weather View 32 v70,2013-09-23 19:28:00,
2013-09-23 15:33:00,67.8,21.4,29.74,West,269,1.0,12.0,17,0.00,,,0.00,Weather View 32 v70,2013-09-23 19:33:00,
2013-09-23 15:38:00,69.2,24.2,29.74,North,349,1.0,12.0,18,0.00,,,0.00,Weather View 32 v70,2013-09-23 19:38:00,
2013-09-23 15:43:00,68.7,24.3,29.74,North,353,4.0,12.0,19,0.00,,,0.00,Weather View 32 v70,2013-09-23 19:43:00,
2013-09-23 15:48:00,67.1,23.6,29.74,North,3,4.0,12.0,19,0.00,,,0.00,Weather View 32 v70,2013-09-23 19:48:00,
2013-09-23 15:53:00,67.4,23.7,29.77,NE,48,1.0,12.0,19,0.00,,,0.00,Weather View 32 v70,2013-09-23 19:53:00,
2013-09-23 15:58:00,70.1,25.5,29.74,ENE,66,3.0,12.0,19,0.00,,,0.00,Weather View 32 v70,2013-09-23 19:58:00,
2013-09-23 16:03:00,69.4,23.4,29.74,NNW,345,2.0,11.0,18,0.00,,,0.00,Weather View 32 v70,2013-09-23 20:03:00,
2013-09-23 16:08:00,67.4,23.1,29.74,NW,320,2.0,11.0,19,0.00,,,0.00,Weather View 32 v70,2013-09-23 20:08:00,
2013-09-23 16:13:00,67.4,20.9,29.74,West,276,3.0,11.0,17,0.00,,,0.00,Weather View 32 v70,2013-09-23 20:13:00,
2013-09-23 16:18:00,66.9,21.9,29.74,NW,318,6.0,11.0,18,0.00,,,0.00,Weather View 32 v70,2013-09-23 20:18:00,
2013-09-23 16:23:00,68.9,24.7,29.74,WNW,288,1.0,11.0,19,0.00,,,0.00,Weather View 32 v70,2013-09-23 20:23:00,
2013-09-23 16:28:00,68.3,25.6,29.74,North,350,3.0,11.0,20,0.00,,,0.00,Weather View 32 v70,2013-09-23 20:28:00,
2013-09-23 16:33:00,68.2,24.9,29.74,SSW,198,1.0,11.0,20,0.00,,,0.00,Weather View 32 v70,2013-09-23 20:33:00,
2013-09-23 16:39:00,66.9,23.0,29.74,NW,320,2.0,11.0,19,0.00,,,0.00,Weather View 32 v70,2013-09-23 20:39:00,
2013-09-23 16:44:00,68.3,24.1,29.74,WSW,248,1.0,11.0,19,0.00,,,0.00,Weather View 32 v70,2013-09-23 20:44:00,
2013-09-23 16:49:00,68.5,24.3,29.77,NW,317,2.0,10.0,19,0.00,,,0.00,Weather View 32 v70,2013-09-23 20:49:00,
2013-09-23 16:54:00,66.5,23.7,29.77,NW,321,2.0,10.0,20,0.00,,,0.00,Weather View 32 v70,2013-09-23 20:54:00,
2013-09-23 16:58:00,66.4,23.3,29.77,WNW,293,4.0,10.0,19,0.00,,,0.00,Weather View 32 v70,2013-09-23 20:58:00,
2013-09-23 17:04:00,66.7,25.1,29.74,North,349,3.0,10.0,21,0.00,,,0.00,Weather View 32 v70,2013-09-23 21:04:00,
2013-09-23 17:09:00,66.2,25.2,29.77,NNW,336,5.0,10.0,21,0.00,,,0.00,Weather View 32 v70,2013-09-23 21:09:00,
2013-09-23 17:14:00,65.5,25.2,29.77,NNW,346,1.0,10.0,22,0.00,,,0.00,Weather View 32 v70,2013-09-23 21:14:00,
2013-09-23 17:19:00,64.9,25.6,29.77,North,11,5.0,10.0,23,0.00,,,0.00,Weather View 32 v70,2013-09-23 21:19:00,
2013-09-23 17:24:00,64.2,25.2,29.80,NNW,329,5.0,10.0,23,0.00,,,0.00,Weather View 32 v70,2013-09-23 21:24:00,
2013-09-23 17:29:00,64.4,25.9,29.77,NNW,338,4.0,10.0,23,0.00,,,0.00,Weather View 32 v70,2013-09-23 21:29:00,
2013-09-23 17:34:00,65.3,26.8,29.77,NW,322,1.0,10.0,23,0.00,,,0.00,Weather View 32 v70,2013-09-23 21:34:00,
2013-09-23 17:39:00,61.9,24.4,29.77,NNW,329,2.0,10.0,24,0.00,,,0.00,Weather View 32 v70,2013-09-23 21:39:00,
2013-09-23 17:44:00,61.0,25.1,29.77,WNW,291,3.0,10.0,25,0.00,,,0.00,Weather View 32 v70,2013-09-23 21:44:00,
2013-09-23 17:49:00,61.5,26.7,29.77,NNW,338,5.0,10.0,27,0.00,,,0.00,Weather View 32 v70,2013-09-23 21:49:00,
2013-09-23 17:54:00,63.1,28.3,29.77,ENE,72,0.0,10.0,27,0.00,,,0.00,Weather View 32 v70,2013-09-23 21:54:00,
2013-09-23 17:59:00,63.1,27.9,29.77,NW,322,1.0,10.0,26,0.00,,,0.00,Weather View 32 v70,2013-09-23 21:59:00,
2013-09-23 18:04:00,60.6,26.3,29.77,NW,312,1.0,10.0,27,0.00,,,0.00,Weather View 32 v70,2013-09-23 22:04:00,
2013-09-23 18:09:00,60.1,27.5,29.77,ESE,114,1.0,10.0,29,0.00,,,0.00,Weather View 32 v70,2013-09-23 22:09:00,
2013-09-23 18:14:00,59.3,27.1,29.74,NNW,331,1.0,10.0,29,0.00,,,0.00,Weather View 32 v70,2013-09-23 22:14:00,
2013-09-23 18:19:00,59.0,28.1,29.80,SW,215,1.0,9.0,31,0.00,,,0.00,Weather View 32 v70,2013-09-23 22:19:00,
2013-09-23 18:24:00,59.2,28.3,29.80,NE,54,1.0,7.0,31,0.00,,,0.00,Weather View 32 v70,2013-09-23 22:24:00,
2013-09-23 18:29:00,59.0,28.6,29.80,East,90,1.0,7.0,31,0.00,,,0.00,Weather View 32 v70,2013-09-23 22:29:00,
2013-09-23 18:34:00,58.1,28.5,29.80,SW,235,1.0,7.0,32,0.00,,,0.00,Weather View 32 v70,2013-09-23 22:34:00,
2013-09-23 18:39:00,57.9,29.0,29.80,NW,321,0.0,6.0,33,0.00,,,0.00,Weather View 32 v70,2013-09-23 22:39:00,
2013-09-23 18:44:00,57.5,29.8,29.80,ENE,72,0.0,6.0,35,0.00,,,0.00,Weather View 32 v70,2013-09-23 22:44:00,
2013-09-23 18:49:00,57.5,30.4,29.80,ENE,73,1.0,6.0,36,0.00,,,0.00,Weather View 32 v70,2013-09-23 22:49:00,
2013-09-23 18:54:00,57.0,29.9,29.80,ENE,68,0.0,4.0,36,0.00,,,0.00,Weather View 32 v70,2013-09-23 22:54:00,
2013-09-23 18:59:00,56.6,31.2,29.80,NE,56,1.0,4.0,38,0.00,,,0.00,Weather View 32 v70,2013-09-23 22:59:00,
2013-09-23 19:04:00,56.3,30.4,29.80,ENE,63,2.0,4.0,37,0.00,,,0.00,Weather View 32 v70,2013-09-23 23:04:00,
2013-09-23 19:09:00,55.9,30.0,29.80,NE,38,1.0,4.0,37,0.00,,,0.00,Weather View 32 v70,2013-09-23 23:09:00,
2013-09-23 19:14:00,55.2,29.7,29.80,ENE,62,1.0,4.0,38,0.00,,,0.00,Weather View 32 v70,2013-09-23 23:14:00,
2013-09-23 19:19:00,55.2,29.5,29.80,ENE,72,1.0,4.0,37,0.00,,,0.00,Weather View 32 v70,2013-09-23 23:19:00,
2013-09-23 19:24:00,55.2,29.6,29.80,NE,52,2.0,3.0,37,0.00,,,0.00,Weather View 32 v70,2013-09-23 23:24:00,
2013-09-23 19:29:00,54.8,29.7,29.80,North,10,1.0,3.0,38,0.00,,,0.00,Weather View 32 v70,2013-09-23 23:29:00,
2013-09-23 19:34:00,54.7,29.7,29.83,NE,52,2.0,3.0,38,0.00,,,0.00,Weather View 32 v70,2013-09-23 23:34:00,
2013-09-23 19:39:00,54.3,29.6,29.80,NNE,31,1.0,3.0,39,0.00,,,0.00,Weather View 32 v70,2013-09-23 23:39:00,
2013-09-23 19:44:00,53.0,28.9,29.77,West,264,2.0,2.0,39,0.00,,,0.00,Weather View 32 v70,2013-09-23 23:44:00,
2013-09-23 19:49:00,53.4,29.8,29.83,ENE,71,0.0,2.0,40,0.00,,,0.00,Weather View 32 v70,2013-09-23 23:49:00,
2013-09-23 19:54:00,53.6,30.0,29.83,NNE,31,1.0,2.0,40,0.00,,,0.00,Weather View 32 v70,2013-09-23 23:54:00,
2013-09-23 19:59:00,53.0,30.0,29.83,NNE,25,2.0,2.0,41,0.00,,,0.00,Weather View 32 v70,2013-09-23 23:59:00,
2013-09-23 20:04:00,53.0,30.3,29.80,NE,44,1.0,2.0,42,0.00,,,0.00,Weather View 32 v70,2013-09-24 00:04:00,
2013-09-23 20:09:00,52.7,29.9,29.83,ENE,76,1.0,2.0,42,0.00,,,0.00,Weather View 32 v70,2013-09-24 00:09:00,
2013-09-23 20:14:00,52.5,30.5,29.83,NE,39,1.0,2.0,43,0.00,,,0.00,Weather View 32 v70,2013-09-24 00:14:00,
2013-09-23 20:19:00,52.1,30.4,29.83,ENE,77,1.0,2.0,43,0.00,,,0.00,Weather View 32 v70,2013-09-24 00:19:00,
2013-09-23 20:24:00,52.1,30.7,29.83,NNE,25,1.0,2.0,44,0.00,,,0.00,Weather View 32 v70,2013-09-24 00:24:00,
2013-09-23 20:29:00,51.8,30.4,29.83,NE,55,1.0,2.0,44,0.00,,,0.00,Weather View 32 v70,2013-09-24 00:29:00,
2013-09-23 20:34:00,51.6,30.7,29.83,East,88,0.0,2.0,45,0.00,,,0.00,Weather View 32 v70,2013-09-24 00:34:00,
2013-09-23 20:39:00,51.1,30.5,29.83,ENE,78,1.0,2.0,45,0.00,,,0.00,Weather View 32 v70,2013-09-24 00:39:00,
2013-09-23 20:44:00,51.1,30.5,29.83,East,83,0.0,2.0,45,0.00,,,0.00,Weather View 32 v70,2013-09-24 00:44:00,
2013-09-23 20:49:00,51.4,31.0,29.83,ENE,62,1.0,2.0,45,0.00,,,0.00,Weather View 32 v70,2013-09-24 00:49:00,
2013-09-23 20:54:00,51.1,30.7,29.83,NE,35,1.0,2.0,46,0.00,,,0.00,Weather View 32 v70,2013-09-24 00:54:00,
2013-09-23 20:59:00,50.9,30.7,29.83,NNE,15,1.0,2.0,46,0.00,,,0.00,Weather View 32 v70,2013-09-24 00:59:00,
2013-09-23 21:04:00,50.9,30.7,29.83,North,11,1.0,2.0,46,0.00,,,0.00,Weather View 32 v70,2013-09-24 01:04:00,
2013-09-23 21:09:00,50.9,30.8,29.83,East,83,0.0,2.0,46,0.00,,,0.00,Weather View 32 v70,2013-09-24 01:09:00,
2013-09-23 21:14:00,50.9,30.7,29.83,North,4,2.0,2.0,46,0.00,,,0.00,Weather View 32 v70,2013-09-24 01:14:00,
2013-09-23 21:19:00,50.0,30.5,29.83,North,354,2.0,2.0,47,0.00,,,0.00,Weather View 32 v70,2013-09-24 01:19:00,
2013-09-23 21:24:00,49.6,30.6,29.83,North,0,1.0,2.0,48,0.00,,,0.00,Weather View 32 v70,2013-09-24 01:24:00,
2013-09-23 21:29:00,49.4,30.7,29.83,North,4,1.0,2.0,48,0.00,,,0.00,Weather View 32 v70,2013-09-24 01:29:00,
2013-09-23 21:34:00,49.1,31.0,29.83,North,349,0.0,2.0,50,0.00,,,0.00,Weather View 32 v70,2013-09-24 01:34:00,
2013-09-23 21:39:00,48.9,31.0,29.83,NW,324,1.0,2.0,50,0.00,,,0.00,Weather View 32 v70,2013-09-24 01:39:00,
2013-09-23 21:44:00,48.9,31.2,29.83,NNE,32,1.0,2.0,50,0.00,,,0.00,Weather View 32 v70,2013-09-24 01:44:00,
2013-09-23 21:49:00,48.4,31.1,29.83,North,354,2.0,2.0,51,0.00,,,0.00,Weather View 32 v70,2013-09-24 01:49:00,
2013-09-23 21:54:00,48.2,31.2,29.83,NE,48,1.0,2.0,52,0.00,,,0.00,Weather View 32 v70,2013-09-24 01:54:00,
2013-09-23 21:59:00,48.5,31.3,29.83,East,79,1.0,2.0,51,0.00,,,0.00,Weather View 32 v70,2013-09-24 01:59:00,
2013-09-23 22:04:00,48.4,31.1,29.83,North,358,1.0,2.0,51,0.00,,,0.00,Weather View 32 v70,2013-09-24 02:04:00,
2013-09-23 22:09:00,48.2,31.0,29.83,NE,48,0.0,2.0,51,0.00,,,0.00,Weather View 32 v70,2013-09-24 02:09:00,
2013-09-23 22:14:00,48.0,31.3,29.83,SE,132,1.0,2.0,52,0.00,,,0.00,Weather View 32 v70,2013-09-24 02:14:00,
2013-09-23 22:19:00,48.4,31.6,29.83,NNE,33,1.0,2.0,52,0.00,,,0.00,Weather View 32 v70,2013-09-24 02:19:00,
2013-09-23 22:24:00,48.4,31.1,29.86,ENE,77,0.0,2.0,51,0.00,,,0.00,Weather View 32 v70,2013-09-24 02:24:00,
2013-09-23 22:29:00,48.0,30.7,29.88,North,359,0.0,2.0,51,0.00,,,0.00,Weather View 32 v70,2013-09-24 02:29:00,
2013-09-23 22:34:00,47.6,30.5,29.83,NW,324,1.0,2.0,51,0.00,,,0.00,Weather View 32 v70,2013-09-24 02:34:00,
2013-09-23 22:39:00,47.3,30.9,29.88,North,6,1.0,2.0,53,0.00,,,0.00,Weather View 32 v70,2013-09-24 02:39:00,
2013-09-23 22:44:00,46.4,30.4,29.88,SW,230,3.0,3.0,54,0.00,,,0.00,Weather View 32 v70,2013-09-24 02:44:00,
2013-09-23 22:49:00,47.3,31.7,29.88,ENE,72,1.0,4.0,55,0.00,,,0.00,Weather View 32 v70,2013-09-24 02:49:00,
2013-09-23 22:54:00,47.6,31.5,29.88,East,98,2.0,4.0,53,0.00,,,0.00,Weather View 32 v70,2013-09-24 02:54:00,
2013-09-23 22:59:00,47.1,31.6,29.88,ESE,121,2.0,4.0,55,0.00,,,0.00,Weather View 32 v70,2013-09-24 02:59:00,
2013-09-23 23:04:00,47.1,31.8,29.88,East,101,3.0,4.0,55,0.00,,,0.00,Weather View 32 v70,2013-09-24 03:04:00,
2013-09-23 23:09:00,47.1,32.1,29.86,ENE,78,3.0,5.0,56,0.00,,,0.00,Weather View 32 v70,2013-09-24 03:09:00,
2013-09-23 23:14:00,47.3,32.2,29.88,NE,55,1.0,5.0,56,0.00,,,0.00,Weather View 32 v70,2013-09-24 03:14:00,
2013-09-23 23:19:00,47.5,31.8,29.91,ENE,58,2.0,5.0,54,0.00,,,0.00,Weather View 32 v70,2013-09-24 03:19:00,
2013-09-23 23:24:00,47.5,31.3,29.88,ENE,65,1.0,5.0,53,0.00,,,0.00,Weather View 32 v70,2013-09-24 03:24:00,
2013-09-23 23:29:00,47.5,31.0,29.86,ENE,72,1.0,5.0,53,0.00,,,0.00,Weather View 32 v70,2013-09-24 03:29:00,
2013-09-23 23:34:00,47.3,30.6,29.88,NNW,346,2.0,5.0,52,0.00,,,0.00,Weather View 32 v70,2013-09-24 03:34:00,
2013-09-23 23:39:00,47.6,30.9,29.86,ESE,103,1.0,5.0,52,0.00,,,0.00,Weather View 32 v70,2013-09-24 03:39:00,
2013-09-23 23:44:00,47.5,30.6,29.88,SSW,197,0.0,5.0,52,0.00,,,0.00,Weather View 32 v70,2013-09-24 03:44:00,
2013-09-23 23:49:00,47.6,30.8,29.88,ENE,59,1.0,5.0,52,0.00,,,0.00,Weather View 32 v70,2013-09-24 03:49:00,
2013-09-23 23:54:00,47.6,30.8,29.88,NE,46,3.0,5.0,52,0.00,,,0.00,Weather View 32 v70,2013-09-24 03:54:00,
2013-09-23 23:59:00,47.6,30.8,29.88,East,82,2.0,5.0,52,0.00,,,0.00,Weather View 32 v70,2013-09-24 03:59:00,